createdAt,value
2018-12-17T00:00:18.767Z,19.97
2018-12-17T00:02:46.240Z,24.30
2018-12-17T00:05:13.677Z,22.70
2018-12-17T00:07:41.132Z,23.23
2018-12-17T00:10:08.578Z,21.20
2018-12-17T00:12:36.048Z,20.67
2018-12-17T00:15:03.530Z,22.70
2018-12-17T00:17:30.975Z,27.75
2018-12-17T00:19:58.416Z,23.90
2018-12-17T00:22:25.877Z,20.50
2018-12-17T00:24:53.349Z,18.63
2018-12-17T00:27:20.849Z,17.50
2018-12-17T00:29:48.297Z,21.37
2018-12-17T00:32:15.750Z,19.07
2018-12-17T00:34:43.289Z,18.73
2018-12-17T00:37:10.730Z,19.27
2018-12-17T00:39:38.173Z,20.80
2018-12-17T00:42:05.620Z,18.37
2018-12-17T00:44:33.055Z,17.90
2018-12-17T00:47:00.529Z,21.40
2018-12-17T00:49:27.959Z,20.77
2018-12-17T00:51:55.428Z,19.00
2018-12-17T00:54:22.873Z,22.77
2018-12-17T00:56:50.329Z,19.70
2018-12-17T00:59:17.776Z,19.13
2018-12-17T01:01:45.235Z,19.13
2018-12-17T01:04:12.681Z,18.03
2018-12-17T01:06:40.203Z,16.43
2018-12-17T01:09:07.660Z,18.37
2018-12-17T01:11:35.121Z,17.13
2018-12-17T01:14:02.556Z,18.37
2018-12-17T01:16:29.983Z,18.30
2018-12-17T01:18:57.431Z,15.43
2018-12-17T01:21:25.395Z,18.33
2018-12-17T01:23:52.909Z,16.93
2018-12-17T01:26:20.981Z,17.57
2018-12-17T01:28:48.666Z,15.43
2018-12-17T01:31:16.100Z,14.73
2018-12-17T01:33:43.557Z,18.67
2018-12-17T01:36:10.996Z,17.23
2018-12-17T01:38:38.448Z,15.47
2018-12-17T01:41:06.233Z,16.10
2018-12-17T01:43:33.688Z,16.83
2018-12-17T01:46:01.119Z,16.90
2018-12-17T01:48:28.569Z,17.50
2018-12-17T01:50:56.019Z,17.20
2018-12-17T01:53:23.476Z,17.67
2018-12-17T01:55:50.920Z,15.03
2018-12-17T01:58:18.372Z,15.43
2018-12-17T02:00:45.928Z,16.67
2018-12-17T02:03:13.398Z,14.13
2018-12-17T02:05:40.841Z,14.03
2018-12-17T02:08:08.309Z,14.33
2018-12-17T02:10:35.781Z,15.67
2018-12-17T02:13:03.247Z,14.03
2018-12-17T02:15:30.694Z,15.60
2018-12-17T02:17:58.156Z,12.60
2018-12-17T02:20:25.600Z,13.27
2018-12-17T02:22:53.048Z,14.70
2018-12-17T02:25:20.498Z,15.17
2018-12-17T02:27:47.956Z,14.43
2018-12-17T02:30:15.411Z,14.87
2018-12-17T02:32:42.934Z,14.17
2018-12-17T02:35:10.380Z,15.00
2018-12-17T02:37:37.807Z,13.80
2018-12-17T02:40:05.445Z,12.70
2018-12-17T02:42:32.889Z,14.07
2018-12-17T02:45:00.363Z,12.67
2018-12-17T02:47:27.797Z,12.33
2018-12-17T02:49:55.255Z,12.03
2018-12-17T02:52:22.684Z,12.17
2018-12-17T02:54:50.155Z,13.13
2018-12-17T02:57:17.624Z,12.63
2018-12-17T02:59:45.085Z,12.00
2018-12-17T03:02:12.541Z,11.50
2018-12-17T03:04:39.976Z,12.30
2018-12-17T03:07:07.428Z,11.93
2018-12-17T03:09:34.875Z,12.13
2018-12-17T03:12:02.323Z,11.97
2018-12-17T03:14:29.761Z,11.50
2018-12-17T03:16:57.296Z,10.83
2018-12-17T03:19:24.847Z,10.37
2018-12-17T03:21:52.372Z,11.73
2018-12-17T03:24:19.825Z,9.47
2018-12-17T03:26:47.280Z,10.70
2018-12-17T03:29:14.733Z,10.33
2018-12-17T03:31:42.427Z,10.47
2018-12-17T03:34:09.954Z,11.63
2018-12-17T03:36:37.406Z,10.13
2018-12-17T03:39:05.905Z,8.77
2018-12-17T03:41:33.334Z,10.70
2018-12-17T03:44:00.806Z,10.83
2018-12-17T03:46:28.240Z,9.47
2018-12-17T03:48:55.696Z,11.10
2018-12-17T03:51:23.125Z,10.27
2018-12-17T03:53:50.587Z,9.07
2018-12-17T03:56:18.036Z,10.10
2018-12-17T03:58:45.467Z,8.97
2018-12-17T04:01:12.923Z,11.47
2018-12-17T04:03:40.351Z,11.33
2018-12-17T04:06:07.797Z,8.93
2018-12-17T04:08:35.242Z,9.77
2018-12-17T04:11:02.687Z,12.27
2018-12-17T04:13:30.144Z,10.30
2018-12-17T04:15:57.620Z,11.30
2018-12-17T04:18:25.692Z,10.27
2018-12-17T04:20:53.138Z,9.73
2018-12-17T04:23:20.576Z,9.27
2018-12-17T04:25:48.037Z,10.47
2018-12-17T04:28:15.568Z,10.50
2018-12-17T04:30:43.025Z,10.37
2018-12-17T04:33:10.476Z,10.60
2018-12-17T04:35:37.962Z,8.70
2018-12-17T04:38:05.396Z,8.50
2018-12-17T04:40:32.843Z,10.07
2018-12-17T04:43:00.293Z,11.97
2018-12-17T04:45:27.748Z,9.47
2018-12-17T04:47:55.200Z,9.83
2018-12-17T04:50:22.644Z,9.87
2018-12-17T04:52:50.088Z,9.17
2018-12-17T04:55:17.541Z,9.90
2018-12-17T04:57:45.299Z,10.77
2018-12-17T05:00:13.017Z,11.17
2018-12-17T05:02:40.477Z,10.93
2018-12-17T05:05:07.927Z,10.63
2018-12-17T05:07:35.373Z,10.30
2018-12-17T05:10:03.602Z,9.87
2018-12-17T05:12:31.045Z,11.80
2018-12-17T05:14:58.492Z,9.60
2018-12-17T05:17:25.925Z,10.53
2018-12-17T05:19:53.432Z,9.33
2018-12-17T05:22:20.849Z,9.93
2018-12-17T05:24:48.303Z,11.73
2018-12-17T05:27:15.736Z,9.90
2018-12-17T05:29:43.200Z,9.63
2018-12-17T05:32:10.640Z,9.37
2018-12-17T05:34:38.078Z,9.10
2018-12-17T05:37:05.568Z,9.47
2018-12-17T05:39:33.003Z,8.77
2018-12-17T05:42:00.459Z,9.37
2018-12-17T05:44:28.064Z,9.70
2018-12-17T05:46:56.030Z,9.30
2018-12-17T05:49:23.474Z,8.27
2018-12-17T05:51:50.992Z,11.53
2018-12-17T05:54:18.477Z,9.80
2018-12-17T05:56:45.928Z,10.27
2018-12-17T05:59:13.439Z,9.50
2018-12-17T06:01:40.889Z,11.77
2018-12-17T06:04:08.325Z,9.23
2018-12-17T06:06:35.782Z,8.90
2018-12-17T06:09:04.350Z,10.33
2018-12-17T06:11:32.062Z,9.53
2018-12-17T06:13:59.491Z,9.83
2018-12-17T06:16:26.972Z,8.83
2018-12-17T06:18:54.418Z,9.73
2018-12-17T06:21:21.854Z,8.77
2018-12-17T06:23:49.348Z,8.20
2018-12-17T06:26:16.790Z,9.63
2018-12-17T06:28:44.221Z,8.50
2018-12-17T06:31:11.693Z,10.10
2018-12-17T06:33:39.114Z,8.77
2018-12-17T06:36:06.559Z,8.53
2018-12-17T06:38:34.016Z,8.67
2018-12-17T06:41:01.470Z,7.67
2018-12-17T06:43:28.916Z,8.33
2018-12-17T06:45:56.401Z,7.80
2018-12-17T06:48:23.832Z,8.50
2018-12-17T06:50:51.279Z,7.83
2018-12-17T06:53:18.721Z,9.03
2018-12-17T06:55:46.155Z,8.37
2018-12-17T06:58:13.837Z,12.70
2018-12-17T07:00:41.275Z,7.30
2018-12-17T07:03:08.789Z,7.33
2018-12-17T07:05:36.233Z,6.97
2018-12-17T07:08:03.683Z,7.20
2018-12-17T07:10:31.128Z,7.20
2018-12-17T07:12:58.584Z,6.80
2018-12-17T07:15:26.040Z,6.47
2018-12-17T07:17:53.480Z,7.53
2018-12-17T07:20:20.912Z,7.07
2018-12-17T07:22:48.365Z,6.87
2018-12-17T07:25:15.841Z,6.93
2018-12-17T07:27:43.296Z,6.47
2018-12-17T07:30:10.741Z,6.73
2018-12-17T07:32:38.205Z,7.80
2018-12-17T07:35:05.687Z,7.00
2018-12-17T07:37:33.121Z,7.17
2018-12-17T07:40:00.575Z,6.63
2018-12-17T07:42:28.008Z,6.30
2018-12-17T07:44:57.092Z,7.20
2018-12-17T07:47:24.512Z,6.70
2018-12-17T07:49:51.956Z,7.20
2018-12-17T07:52:19.459Z,6.27
2018-12-17T07:54:46.897Z,5.80
2018-12-17T07:57:14.339Z,6.77
2018-12-17T07:59:42.075Z,6.97
2018-12-17T08:02:09.531Z,5.80
2018-12-17T08:04:36.999Z,6.03
2018-12-17T08:07:04.456Z,7.00
2018-12-17T08:09:31.911Z,6.47
2018-12-17T08:11:59.398Z,7.67
2018-12-17T08:14:26.864Z,5.87
2018-12-17T08:16:54.558Z,5.73
2018-12-17T08:19:22.092Z,5.00
2018-12-17T08:21:49.642Z,6.47
2018-12-17T08:24:17.087Z,5.40
2018-12-17T08:26:44.612Z,5.37
2018-12-17T08:29:12.077Z,4.87
2018-12-17T08:31:39.526Z,5.67
2018-12-17T08:34:07.004Z,5.70
2018-12-17T08:36:34.449Z,5.47
2018-12-17T08:39:01.957Z,4.90
2018-12-17T08:41:29.391Z,5.43
2018-12-17T08:43:56.831Z,5.83
2018-12-17T08:46:24.306Z,5.67
2018-12-17T08:48:51.758Z,6.30
2018-12-17T08:51:19.183Z,5.70
2018-12-17T08:53:46.625Z,5.67
2018-12-17T08:56:14.080Z,5.50
2018-12-17T08:58:41.544Z,5.20
2018-12-17T09:01:08.989Z,6.10
2018-12-17T09:03:36.435Z,5.57
2018-12-17T09:06:03.889Z,5.50
2018-12-17T09:08:31.407Z,6.20
2018-12-17T09:10:58.839Z,5.93
2018-12-17T09:13:26.286Z,5.10
2018-12-17T09:15:53.727Z,4.93
2018-12-17T09:18:21.269Z,5.17
2018-12-17T09:20:48.743Z,5.17
2018-12-17T09:23:16.176Z,6.17
2018-12-17T09:25:43.675Z,5.00
2018-12-17T09:28:11.109Z,6.30
2018-12-17T09:30:41.535Z,6.80
2018-12-17T09:33:07.992Z,5.80
2018-12-17T09:35:35.431Z,6.07
2018-12-17T09:38:02.864Z,6.03
2018-12-17T09:40:30.305Z,6.10
2018-12-17T09:42:57.885Z,5.77
2018-12-17T09:45:25.337Z,6.70
2018-12-17T09:47:52.768Z,5.23
2018-12-17T09:50:20.200Z,4.87
2018-12-17T09:52:47.647Z,6.50
2018-12-17T09:55:15.108Z,4.97
2018-12-17T09:57:42.547Z,6.40
2018-12-17T10:00:09.976Z,5.63
2018-12-17T10:02:37.404Z,5.83
2018-12-17T10:05:04.914Z,5.90
2018-12-17T10:07:32.345Z,5.60
2018-12-17T10:09:59.823Z,6.00
2018-12-17T10:12:27.283Z,5.27
2018-12-17T10:14:54.731Z,5.27
2018-12-17T10:17:22.167Z,4.60
2018-12-17T10:19:49.617Z,4.93
2018-12-17T10:22:17.039Z,5.63
2018-12-17T10:24:44.478Z,5.03
2018-12-17T10:27:11.901Z,5.50
2018-12-17T10:29:39.342Z,6.00
2018-12-17T10:32:06.802Z,5.13
2018-12-17T10:34:34.304Z,5.00
2018-12-17T10:37:01.744Z,6.07
2018-12-17T10:39:29.174Z,4.83
2018-12-17T10:41:56.699Z,4.87
2018-12-17T10:44:24.142Z,5.13
2018-12-17T10:46:51.642Z,5.30
2018-12-17T10:49:19.063Z,5.50
2018-12-17T10:51:46.513Z,5.00
2018-12-17T10:54:13.956Z,5.60
2018-12-17T10:56:41.400Z,5.63
2018-12-17T10:59:08.909Z,6.30
2018-12-17T11:01:58.208Z,6.13
2018-12-17T11:04:27.585Z,5.57
2018-12-17T11:06:55.058Z,4.80
2018-12-17T11:09:22.490Z,5.43
2018-12-17T11:11:49.919Z,6.50
2018-12-17T11:14:17.368Z,6.57
2018-12-17T11:16:44.821Z,6.37
2018-12-17T11:19:12.263Z,6.40
2018-12-17T11:21:39.719Z,6.67
2018-12-17T11:24:07.147Z,6.87
2018-12-17T11:26:34.597Z,6.40
2018-12-17T11:29:02.032Z,5.87
2018-12-17T11:31:29.463Z,6.37
2018-12-17T11:33:56.908Z,9.70
2018-12-17T11:36:24.340Z,7.00
2018-12-17T11:38:51.777Z,7.60
2018-12-17T11:41:19.291Z,7.63
2018-12-17T11:43:46.735Z,7.23
2018-12-17T11:46:14.177Z,7.93
2018-12-17T11:48:41.748Z,7.97
2018-12-17T11:51:09.208Z,7.47
2018-12-17T11:53:36.656Z,7.67
2018-12-17T11:56:04.179Z,7.17
2018-12-17T11:58:31.625Z,7.50
2018-12-17T12:01:00.008Z,7.97
2018-12-17T12:03:27.456Z,7.77
2018-12-17T12:05:54.899Z,7.80
2018-12-17T12:08:22.335Z,8.27
2018-12-17T12:10:49.786Z,6.10
2018-12-17T12:13:17.301Z,8.00
2018-12-17T12:15:44.739Z,9.03
2018-12-17T12:18:12.163Z,8.17
2018-12-17T12:20:39.608Z,8.00
2018-12-17T12:23:07.056Z,8.50
2018-12-17T12:25:34.504Z,10.35
2018-12-17T12:28:01.955Z,9.40
2018-12-17T12:30:29.397Z,10.63
2018-12-17T12:32:56.891Z,10.53
2018-12-17T12:35:24.322Z,10.90
2018-12-17T12:37:51.806Z,10.77
2018-12-17T12:40:19.298Z,11.30
2018-12-17T12:42:51.532Z,11.13
2018-12-17T12:45:16.208Z,11.80
2018-12-17T12:47:43.654Z,11.77
2018-12-17T12:50:11.101Z,12.07
2018-12-17T12:52:38.549Z,12.80
2018-12-17T12:55:05.983Z,12.50
2018-12-17T12:57:33.439Z,12.87
2018-12-17T13:00:00.879Z,13.67
2018-12-17T13:02:28.321Z,13.00
2018-12-17T13:04:55.752Z,13.63
2018-12-17T13:07:23.196Z,12.70
2018-12-17T13:09:50.628Z,14.50
2018-12-17T13:12:18.079Z,16.70
2018-12-17T13:14:45.561Z,14.87
2018-12-17T13:17:28.589Z,15.50
2018-12-17T13:19:56.067Z,16.43
2018-12-17T13:22:23.568Z,15.10
2018-12-17T13:24:50.995Z,17.17
2018-12-17T13:27:18.456Z,15.80
2018-12-17T13:29:45.903Z,17.60
2018-12-17T13:32:13.363Z,18.83
2018-12-17T13:34:40.797Z,17.33
2018-12-17T13:37:08.271Z,18.83
2018-12-17T13:39:35.714Z,17.27
2018-12-17T13:42:03.163Z,18.60
2018-12-17T13:44:30.606Z,16.10
2018-12-17T13:46:58.071Z,17.83
2018-12-17T13:49:25.605Z,18.20
2018-12-17T13:51:58.658Z,17.70
2018-12-17T13:54:26.084Z,17.53
2018-12-17T13:56:53.547Z,18.13
2018-12-17T13:59:20.963Z,17.53
2018-12-17T14:01:51.585Z,18.30
2018-12-17T14:04:17.855Z,16.67
2018-12-17T14:06:45.307Z,18.00
2018-12-17T14:09:12.763Z,16.83
2018-12-17T14:11:40.232Z,17.07
2018-12-17T14:14:07.671Z,19.23
2018-12-17T14:16:40.707Z,17.47
2018-12-17T14:19:13.919Z,17.20
2018-12-17T14:21:47.094Z,16.43
2018-12-17T14:24:14.595Z,16.53
2018-12-17T14:26:42.021Z,16.53
2018-12-17T14:29:09.511Z,15.07
2018-12-17T14:31:36.948Z,17.03
2018-12-17T14:34:04.431Z,15.10
2018-12-17T14:36:31.864Z,14.70
2018-12-17T14:38:59.333Z,15.83
2018-12-17T14:41:26.765Z,15.47
2018-12-17T14:43:56.151Z,15.20
2018-12-17T14:46:23.605Z,15.40
2018-12-17T14:48:51.057Z,14.70
2018-12-17T14:51:18.491Z,13.87
2018-12-17T14:53:45.927Z,14.27
2018-12-17T14:56:13.360Z,13.67
2018-12-17T14:58:44.347Z,13.33
2018-12-17T15:01:10.281Z,14.20
2018-12-17T15:03:37.746Z,13.83
2018-12-17T15:06:05.273Z,12.50
2018-12-17T15:08:32.719Z,13.10
2018-12-17T15:11:00.151Z,12.33
2018-12-17T15:13:27.595Z,11.87
2018-12-17T15:15:55.057Z,11.07
2018-12-17T15:18:22.523Z,11.80
2018-12-17T15:20:49.963Z,10.43
2018-12-17T15:23:17.401Z,11.87
2018-12-17T15:25:44.964Z,10.80
2018-12-17T15:28:12.419Z,10.60
2018-12-17T15:30:39.996Z,11.03
2018-12-17T15:33:07.514Z,10.57
2018-12-17T15:35:34.943Z,10.63
2018-12-17T15:38:02.397Z,11.77
2018-12-17T15:40:29.836Z,9.17
2018-12-17T15:42:57.295Z,11.13
2018-12-17T15:45:24.747Z,11.27
2018-12-17T15:47:52.228Z,11.60
2018-12-17T15:50:19.666Z,12.33
2018-12-17T15:52:47.136Z,10.63
2018-12-17T15:55:14.569Z,11.90
2018-12-17T15:57:42.032Z,11.73
2018-12-17T16:00:10.405Z,11.93
2018-12-17T16:02:38.134Z,12.10
2018-12-17T16:05:05.650Z,13.37
2018-12-17T16:07:33.097Z,11.60
2018-12-17T16:10:00.743Z,13.50
2018-12-17T16:12:28.490Z,13.83
2018-12-17T16:14:56.343Z,14.73
2018-12-17T16:17:23.775Z,14.13
2018-12-17T16:19:51.212Z,15.20
2018-12-17T16:22:18.670Z,14.70
2018-12-17T16:24:46.135Z,14.83
2018-12-17T16:27:19.261Z,14.00
2018-12-17T16:29:43.104Z,15.60
2018-12-17T16:32:10.542Z,15.37
2018-12-17T16:34:38.018Z,15.77
2018-12-17T16:37:05.462Z,15.03
2018-12-17T16:39:32.900Z,17.10
2018-12-17T16:42:00.412Z,15.87
2018-12-17T16:44:28.123Z,18.07
2018-12-17T16:46:55.587Z,18.70
2018-12-17T16:49:23.025Z,16.57
2018-12-17T16:51:50.469Z,17.30
2018-12-17T16:54:17.917Z,16.90
2018-12-17T16:56:45.350Z,18.40
2018-12-17T16:59:12.788Z,19.17
2018-12-17T17:01:40.292Z,19.53
2018-12-17T17:04:07.755Z,20.37
2018-12-17T17:06:35.186Z,21.43
2018-12-17T17:09:03.499Z,19.97
2018-12-17T17:11:31.322Z,20.07
2018-12-17T17:13:58.781Z,17.70
2018-12-17T17:16:26.251Z,18.27
2018-12-17T17:18:53.703Z,19.23
2018-12-17T17:21:21.133Z,21.40
2018-12-17T17:23:48.578Z,20.50
2018-12-17T17:26:16.020Z,20.53
2018-12-17T17:28:43.460Z,20.13
2018-12-17T17:31:10.896Z,19.70
2018-12-17T17:33:38.373Z,20.37
2018-12-17T17:36:05.804Z,16.83
2018-12-17T17:38:33.464Z,18.83
2018-12-17T17:41:00.889Z,18.10
2018-12-17T17:43:28.315Z,18.27
2018-12-17T17:45:55.843Z,18.43
2018-12-17T17:48:23.291Z,16.67
2018-12-17T17:50:50.756Z,17.10
2018-12-17T17:53:18.285Z,18.00
2018-12-17T17:55:45.728Z,17.17
2018-12-17T17:58:13.180Z,16.23
2018-12-17T18:00:40.676Z,16.37
2018-12-17T18:03:08.107Z,16.73
2018-12-17T18:05:35.709Z,16.30
2018-12-17T18:08:03.155Z,16.30
2018-12-17T18:10:30.600Z,16.30
2018-12-17T18:12:58.036Z,16.17
2018-12-17T18:15:25.522Z,17.70
2018-12-17T18:17:52.975Z,14.20
2018-12-17T18:20:20.433Z,15.47
2018-12-17T18:22:47.863Z,15.57
2018-12-17T18:25:15.392Z,16.70
2018-12-17T18:27:42.972Z,16.00
2018-12-17T18:30:10.406Z,15.67
2018-12-17T18:32:37.847Z,17.00
2018-12-17T18:35:05.307Z,15.60
2018-12-17T18:37:32.758Z,16.33
2018-12-17T18:40:00.222Z,16.40
2018-12-17T18:42:27.666Z,16.00
2018-12-17T18:44:55.096Z,15.23
2018-12-17T18:47:25.776Z,14.37
2018-12-17T18:49:52.012Z,16.83
2018-12-17T18:52:19.585Z,15.67
2018-12-17T18:54:47.029Z,16.17
2018-12-17T18:57:14.495Z,17.33
2018-12-17T18:59:42.067Z,14.60
2018-12-17T19:02:09.561Z,17.63
2018-12-17T19:04:37.112Z,18.07
2018-12-17T19:07:04.536Z,16.73
2018-12-17T19:09:32.002Z,15.73
2018-12-17T19:11:59.479Z,16.90
2018-12-17T19:14:26.933Z,16.17
2018-12-17T19:16:54.396Z,17.40
2018-12-17T19:19:21.848Z,16.37
2018-12-17T19:21:49.306Z,17.20
2018-12-17T19:24:16.754Z,17.57
2018-12-17T19:26:44.185Z,18.27
2018-12-17T19:29:11.632Z,16.23
2018-12-17T19:31:39.097Z,19.90
2018-12-17T19:34:06.545Z,19.30
2018-12-17T19:36:34.004Z,19.23
2018-12-17T19:39:01.436Z,17.43
2018-12-17T19:41:28.907Z,19.20
2018-12-17T19:43:56.351Z,18.63
2018-12-17T19:46:23.808Z,17.90
2018-12-17T19:48:51.294Z,17.67
2018-12-17T19:51:18.740Z,17.87
2018-12-17T19:53:46.178Z,16.77
2018-12-17T19:56:13.638Z,18.20
2018-12-17T19:58:41.077Z,17.87
2018-12-17T20:01:08.525Z,19.40
2018-12-17T20:03:35.996Z,17.13
2018-12-17T20:06:03.437Z,18.20
2018-12-17T20:08:30.885Z,18.47
2018-12-17T20:10:58.332Z,17.43
2018-12-17T20:13:25.770Z,17.30
2018-12-17T20:15:53.208Z,17.70
2018-12-17T20:18:20.643Z,17.07
2018-12-17T20:20:48.098Z,16.83
2018-12-17T20:23:15.539Z,15.07
2018-12-17T20:25:43.030Z,16.47
2018-12-17T20:28:10.476Z,18.73
2018-12-17T20:30:37.988Z,16.63
2018-12-17T20:33:05.454Z,16.00
2018-12-17T20:35:32.908Z,15.23
2018-12-17T20:38:00.377Z,18.00
2018-12-17T20:40:27.819Z,17.33
2018-12-17T20:42:55.277Z,17.37
2018-12-17T20:45:22.839Z,15.77
2018-12-17T20:47:50.321Z,14.00
2018-12-17T20:50:17.772Z,17.30
2018-12-17T20:52:45.227Z,17.00
2018-12-17T20:55:12.669Z,14.60
2018-12-17T20:57:40.133Z,14.33
2018-12-17T21:00:07.575Z,17.50
2018-12-17T21:02:35.081Z,16.70
2018-12-17T21:05:02.543Z,16.60
2018-12-17T21:07:30.039Z,15.83
2018-12-17T21:09:57.529Z,16.20
2018-12-17T21:12:25.097Z,15.83
2018-12-17T21:14:52.673Z,16.67
2018-12-17T21:17:20.131Z,14.40
2018-12-17T21:19:47.599Z,15.17
2018-12-17T21:22:15.093Z,14.07
2018-12-17T21:24:42.583Z,15.10
2018-12-17T21:27:10.120Z,16.07
2018-12-17T21:29:37.587Z,14.17
2018-12-17T21:32:05.031Z,12.40
2018-12-17T21:34:32.481Z,14.83
2018-12-17T21:37:00.063Z,12.90
2018-12-17T21:39:27.500Z,13.77
2018-12-17T21:41:54.957Z,13.83
2018-12-17T21:44:22.414Z,15.07
2018-12-17T21:46:49.945Z,15.07
2018-12-17T21:49:17.402Z,15.77
2018-12-17T21:51:44.835Z,15.93
2018-12-17T21:54:12.289Z,13.17
2018-12-17T21:56:39.744Z,16.10
2018-12-17T21:59:07.208Z,16.33
2018-12-17T22:01:34.689Z,16.97
2018-12-17T22:04:02.146Z,17.00
2018-12-17T22:06:29.605Z,18.17
2018-12-17T22:08:57.035Z,16.80
2018-12-17T22:11:24.495Z,16.93
2018-12-17T22:13:51.946Z,15.63
2018-12-17T22:16:19.408Z,15.93
2018-12-17T22:18:46.859Z,15.47
2018-12-17T22:21:14.298Z,16.27
2018-12-17T22:23:41.735Z,16.77
2018-12-17T22:26:09.196Z,17.50
2018-12-17T22:28:36.679Z,17.80
2018-12-17T22:31:04.135Z,17.30
2018-12-17T22:33:31.592Z,17.13
2018-12-17T22:35:59.030Z,16.40
2018-12-17T22:38:26.481Z,17.97
2018-12-17T22:40:53.943Z,17.37
2018-12-17T22:43:21.396Z,18.20
2018-12-17T22:45:48.864Z,18.00
2018-12-17T22:48:16.365Z,15.93
2018-12-17T22:50:43.784Z,18.47
2018-12-17T22:53:11.245Z,17.27
2018-12-17T22:55:38.671Z,19.17
2018-12-17T22:58:06.162Z,19.50
2018-12-17T23:00:33.673Z,18.40
2018-12-17T23:03:01.119Z,19.27
2018-12-17T23:05:29.847Z,18.60
2018-12-17T23:07:57.300Z,19.23
2018-12-17T23:10:38.738Z,17.70
2018-12-17T23:13:18.132Z,19.27
2018-12-17T23:15:57.489Z,17.30
2018-12-17T23:18:24.878Z,19.87
2018-12-17T23:20:52.333Z,20.63
2018-12-17T23:23:19.813Z,19.57
2018-12-17T23:25:47.249Z,18.67
2018-12-17T23:28:14.689Z,19.30
2018-12-17T23:30:42.132Z,19.43
2018-12-17T23:33:09.615Z,19.63
2018-12-17T23:35:37.065Z,19.47
2018-12-17T23:38:04.511Z,16.87
2018-12-17T23:40:32.143Z,19.20
2018-12-17T23:42:59.648Z,19.03
2018-12-17T23:45:27.103Z,18.63
2018-12-17T23:47:54.531Z,18.43
2018-12-17T23:50:21.981Z,19.00
2018-12-17T23:52:49.448Z,19.43
2018-12-17T23:55:17.029Z,18.23
2018-12-17T23:57:44.556Z,18.43
